sensor_id;sensor_type;location;lat;lon;timestamp;temperature;humidity
15235;DHT22;7720;51.926;4.488;2023-06-14T00:00:28;20.50;92.60
15235;DHT22;7720;51.926;4.488;2023-06-14T00:05:34;20.50;92.90
15235;DHT22;7720;51.926;4.488;2023-06-14T00:10:42;20.40;93.10
15235;DHT22;7720;51.926;4.488;2023-06-14T00:15:46;20.40;93.30
15235;DHT22;7720;51.926;4.488;2023-06-14T00:20:51;20.30;93.70
15235;DHT22;7720;51.926;4.488;2023-06-14T00:25:55;20.30;94.00
15235;DHT22;7720;51.926;4.488;2023-06-14T00:30:58;20.20;94.30
15235;DHT22;7720;51.926;4.488;2023-06-14T00:36:04;20.20;94.60
15235;DHT22;7720;51.926;4.488;2023-06-14T00:41:08;20.20;95.00
15235;DHT22;7720;51.926;4.488;2023-06-14T00:46:11;20.20;95.20
15235;DHT22;7720;51.926;4.488;2023-06-14T00:51:15;20.00;96.00
15235;DHT22;7720;51.926;4.488;2023-06-14T00:56:19;19.90;96.60
15235;DHT22;7720;51.926;4.488;2023-06-14T01:01:25;19.80;97.00
15235;DHT22;7720;51.926;4.488;2023-06-14T01:06:39;19.90;97.40
15235;DHT22;7720;51.926;4.488;2023-06-14T01:11:53;19.70;97.80
15235;DHT22;7720;51.926;4.488;2023-06-14T01:22:50;19.90;97.30
15235;DHT22;7720;51.926;4.488;2023-06-14T01:27:57;19.60;97.70
15235;DHT22;7720;51.926;4.488;2023-06-14T01:33:01;19.70;97.40
15235;DHT22;7720;51.926;4.488;2023-06-14T01:38:07;19.80;96.10
15235;DHT22;7720;51.926;4.488;2023-06-14T01:43:12;19.70;96.00
15235;DHT22;7720;51.926;4.488;2023-06-14T01:48:15;19.90;95.30
15235;DHT22;7720;51.926;4.488;2023-06-14T01:53:21;20.00;95.00
15235;DHT22;7720;51.926;4.488;2023-06-14T01:58:24;20.00;94.40
15235;DHT22;7720;51.926;4.488;2023-06-14T02:03:28;19.80;94.50
15235;DHT22;7720;51.926;4.488;2023-06-14T02:08:33;19.60;94.40
15235;DHT22;7720;51.926;4.488;2023-06-14T02:13:36;19.60;94.70
15235;DHT22;7720;51.926;4.488;2023-06-14T02:18:40;19.70;94.30
15235;DHT22;7720;51.926;4.488;2023-06-14T02:23:44;19.40;94.80
15235;DHT22;7720;51.926;4.488;2023-06-14T02:28:48;19.30;94.90
15235;DHT22;7720;51.926;4.488;2023-06-14T02:33:51;19.10;95.20
15235;DHT22;7720;51.926;4.488;2023-06-14T02:38:56;19.40;94.80
15235;DHT22;7720;51.926;4.488;2023-06-14T02:44:01;19.30;95.10
15235;DHT22;7720;51.926;4.488;2023-06-14T02:49:04;19.30;95.20
15235;DHT22;7720;51.926;4.488;2023-06-14T02:54:09;19.30;95.30
15235;DHT22;7720;51.926;4.488;2023-06-14T02:59:13;19.30;95.30
15235;DHT22;7720;51.926;4.488;2023-06-14T03:04:17;19.40;95.40
15235;DHT22;7720;51.926;4.488;2023-06-14T03:09:22;18.90;96.00
15235;DHT22;7720;51.926;4.488;2023-06-14T03:14:25;18.90;96.00
15235;DHT22;7720;51.926;4.488;2023-06-14T03:19:29;18.90;96.30
15235;DHT22;7720;51.926;4.488;2023-06-14T03:24:34;18.90;96.30
15235;DHT22;7720;51.926;4.488;2023-06-14T03:29:44;18.70;96.50
15235;DHT22;7720;51.926;4.488;2023-06-14T03:34:47;18.60;96.60
15235;DHT22;7720;51.926;4.488;2023-06-14T03:39:58;18.60;97.30
15235;DHT22;7720;51.926;4.488;2023-06-14T03:45:01;18.50;98.40
15235;DHT22;7720;51.926;4.488;2023-06-14T03:50:06;18.40;99.70
15235;DHT22;7720;51.926;4.488;2023-06-14T03:55:11;18.30;99.90
15235;DHT22;7720;51.926;4.488;2023-06-14T04:00:19;18.60;99.90
15235;DHT22;7720;51.926;4.488;2023-06-14T04:05:23;18.60;99.90
15235;DHT22;7720;51.926;4.488;2023-06-14T04:10:32;18.70;99.90
15235;DHT22;7720;51.926;4.488;2023-06-14T04:15:35;18.90;99.90
15235;DHT22;7720;51.926;4.488;2023-06-14T04:20:39;18.90;99.90
15235;DHT22;7720;51.926;4.488;2023-06-14T04:25:45;20.50;99.10
15235;DHT22;7720;51.926;4.488;2023-06-14T04:30:50;21.50;96.50
15235;DHT22;7720;51.926;4.488;2023-06-14T04:35:55;22.30;94.30
15235;DHT22;7720;51.926;4.488;2023-06-14T04:41:01;22.30;93.90
15235;DHT22;7720;51.926;4.488;2023-06-14T04:46:06;20.90;95.20
15235;DHT22;7720;51.926;4.488;2023-06-14T04:51:13;21.80;94.40
15235;DHT22;7720;51.926;4.488;2023-06-14T04:56:19;23.10;92.60
15235;DHT22;7720;51.926;4.488;2023-06-14T05:01:24;21.60;93.70
15235;DHT22;7720;51.926;4.488;2023-06-14T05:06:29;23.70;91.60
15235;DHT22;7720;51.926;4.488;2023-06-14T05:11:34;25.50;88.40
15235;DHT22;7720;51.926;4.488;2023-06-14T05:16:39;26.80;87.30
15235;DHT22;7720;51.926;4.488;2023-06-14T05:21:42;24.60;86.70
15235;DHT22;7720;51.926;4.488;2023-06-14T05:26:47;25.70;88.20
15235;DHT22;7720;51.926;4.488;2023-06-14T05:31:50;28.30;82.90
15235;DHT22;7720;51.926;4.488;2023-06-14T05:36:54;27.00;83.20
15235;DHT22;7720;51.926;4.488;2023-06-14T05:41:58;28.90;79.50
15235;DHT22;7720;51.926;4.488;2023-06-14T05:47:02;25.70;82.80
15235;DHT22;7720;51.926;4.488;2023-06-14T05:52:06;28.00;79.80
15235;DHT22;7720;51.926;4.488;2023-06-14T05:57:11;27.70;79.80
15235;DHT22;7720;51.926;4.488;2023-06-14T06:02:15;28.20;76.30
15235;DHT22;7720;51.926;4.488;2023-06-14T06:07:18;26.80;76.80
15235;DHT22;7720;51.926;4.488;2023-06-14T06:12:23;24.30;81.60
15235;DHT22;7720;51.926;4.488;2023-06-14T06:17:26;24.20;82.30
15235;DHT22;7720;51.926;4.488;2023-06-14T06:22:47;24.10;82.80
15235;DHT22;7720;51.926;4.488;2023-06-14T06:27:52;23.60;85.60
15235;DHT22;7720;51.926;4.488;2023-06-14T06:32:55;22.80;87.30
15235;DHT22;7720;51.926;4.488;2023-06-14T06:37:59;22.90;87.90
15235;DHT22;7720;51.926;4.488;2023-06-14T18:50:20;24.50;73.10
15235;DHT22;7720;51.926;4.488;2023-06-14T19:00:28;24.50;73.00
15235;DHT22;7720;51.926;4.488;2023-06-14T19:05:32;24.30;73.90
15235;DHT22;7720;51.926;4.488;2023-06-14T19:25:47;24.20;75.10
15235;DHT22;7720;51.926;4.488;2023-06-14T19:30:52;24.10;75.10
15235;DHT22;7720;51.926;4.488;2023-06-14T19:46:04;23.80;76.40
15235;DHT22;7720;51.926;4.488;2023-06-14T19:56:11;23.50;77.00
15235;DHT22;7720;51.926;4.488;2023-06-14T20:16:29;23.30;78.10
15235;DHT22;7720;51.926;4.488;2023-06-14T20:31:41;23.00;79.40
15235;DHT22;7720;51.926;4.488;2023-06-14T21:17:26;22.60;82.10
15235;DHT22;7720;51.926;4.488;2023-06-14T21:32:39;22.20;84.30
15235;DHT22;7720;51.926;4.488;2023-06-14T21:37:45;22.30;84.30
15235;DHT22;7720;51.926;4.488;2023-06-14T21:42:48;22.20;84.70
15235;DHT22;7720;51.926;4.488;2023-06-14T21:47:53;22.10;84.90
15235;DHT22;7720;51.926;4.488;2023-06-14T21:58:00;22.30;85.10
15235;DHT22;7720;51.926;4.488;2023-06-14T22:03:05;22.10;85.70
15235;DHT22;7720;51.926;4.488;2023-06-14T22:08:09;21.90;86.60
15235;DHT22;7720;51.926;4.488;2023-06-14T22:13:12;21.90;86.60
15235;DHT22;7720;51.926;4.488;2023-06-14T22:23:21;21.90;87.30
15235;DHT22;7720;51.926;4.488;2023-06-14T22:48:55;21.80;88.20
15235;DHT22;7720;51.926;4.488;2023-06-14T23:04:08;21.50;90.40
15235;DHT22;7720;51.926;4.488;2023-06-14T23:14:15;21.50;90.80
15235;DHT22;7720;51.926;4.488;2023-06-14T23:19:20;21.50;90.80
15235;DHT22;7720;51.926;4.488;2023-06-14T23:34:37;21.30;91.30
15235;DHT22;7720;51.926;4.488;2023-06-14T23:39:40;21.50;90.90
15235;DHT22;7720;51.926;4.488;2023-06-14T23:44:50;21.40;90.90
15235;DHT22;7720;51.926;4.488;2023-06-14T23:49:55;21.50;90.90
15235;DHT22;7720;51.926;4.488;2023-06-14T23:54:58;21.30;91.00
